Bouse, Arizona
Current Conditions -  °F | °C
As of 6:52 PM on Friday 31 Oct 2014 (Local Time) from KBLH Reporting Station
Clear Clear  
Wind Chill: 83°   Ceiling: Unl
Heat Index: 83°   Visibility: 10mi
Dew Point: 53°   Wind: 13mph
Humidity: 36%   Direction: 200°SSW
Pressure: 29.73"   Gusts: NA
Location:  33.93°N, 114.01°W
Report Text: KBLH 010152Z AUTO 20011KT 10SM CLR 28/12 A2973 RMK AO2 SLP063 T02830117
Loading
Personal Weather Stations






























Interactive Weather Map
Tropical Storm Tracking
New forecast layout! Learn more

10-Day Weather Forecast

Advertisements
Track Severe Weather on mobile